Sentinel Butte, North Dakota
Current Conditions -  °F | °C
As of 2:15 AM on Monday 24 Nov 2014 (Local Time) from K20U Reporting Station
Overcast Overcast  
Wind Chill: 12°   Ceiling: 800
Heat Index: 12°   Visibility: 10mi
Dew Point: 10°   Wind: 3mph
Humidity: 92%   Direction: 280°W
Pressure: 29.8"   Gusts: NA
Location:  46.92°N, 103.84°W
Report Text: K20U 240915Z AUTO 28003KT 10SM OVC008 M11/M12 A2980 RMK AO2
Loading
Personal Weather Stations






























Interactive Weather Map New forecast layout! Learn more

10-Day Weather Forecast

Advertisements
Track Severe Weather on mobile